sensor_id;sensor_type;location;lat;lon;timestamp;temperature;humidity
24678;DHT22;12800;53.094;8.778;2023-08-21T00:00:21;20.10;80.30
24678;DHT22;12800;53.094;8.778;2023-08-21T00:02:47;20.10;80.40
24678;DHT22;12800;53.094;8.778;2023-08-21T00:05:12;20.20;80.60
24678;DHT22;12800;53.094;8.778;2023-08-21T00:07:38;20.10;80.60
24678;DHT22;12800;53.094;8.778;2023-08-21T00:10:04;20.10;81.50
24678;DHT22;12800;53.094;8.778;2023-08-21T00:12:30;20.10;80.60
24678;DHT22;12800;53.094;8.778;2023-08-21T00:14:56;20.10;80.70
24678;DHT22;12800;53.094;8.778;2023-08-21T00:17:21;20.10;80.80
24678;DHT22;12800;53.094;8.778;2023-08-21T00:19:47;20.00;80.80
24678;DHT22;12800;53.094;8.778;2023-08-21T00:22:12;20.00;80.80
24678;DHT22;12800;53.094;8.778;2023-08-21T00:24:38;20.00;81.00
24678;DHT22;12800;53.094;8.778;2023-08-21T00:27:03;20.00;81.00
24678;DHT22;12800;53.094;8.778;2023-08-21T00:29:29;20.00;81.10
24678;DHT22;12800;53.094;8.778;2023-08-21T00:31:55;20.00;81.20
24678;DHT22;12800;53.094;8.778;2023-08-21T00:34:20;20.00;81.40
24678;DHT22;12800;53.094;8.778;2023-08-21T00:36:46;19.90;81.40
24678;DHT22;12800;53.094;8.778;2023-08-21T00:39:12;19.90;82.20
24678;DHT22;12800;53.094;8.778;2023-08-21T00:41:38;20.00;81.50
24678;DHT22;12800;53.094;8.778;2023-08-21T00:44:04;19.90;81.50
24678;DHT22;12800;53.094;8.778;2023-08-21T00:46:30;19.90;81.60
24678;DHT22;12800;53.094;8.778;2023-08-21T00:48:56;19.90;81.70
24678;DHT22;12800;53.094;8.778;2023-08-21T00:51:22;19.90;81.70
24678;DHT22;12800;53.094;8.778;2023-08-21T00:53:48;19.90;81.80
24678;DHT22;12800;53.094;8.778;2023-08-21T00:56:14;19.90;81.80
24678;DHT22;12800;53.094;8.778;2023-08-21T00:58:40;19.90;81.90
24678;DHT22;12800;53.094;8.778;2023-08-21T01:01:06;19.80;82.00
24678;DHT22;12800;53.094;8.778;2023-08-21T01:03:31;19.80;82.20
24678;DHT22;12800;53.094;8.778;2023-08-21T01:05:57;19.80;82.30
24678;DHT22;12800;53.094;8.778;2023-08-21T01:08:31;19.80;82.30
24678;DHT22;12800;53.094;8.778;2023-08-21T01:11:06;19.80;82.30
24678;DHT22;12800;53.094;8.778;2023-08-21T01:16:40;19.80;82.50
24678;DHT22;12800;53.094;8.778;2023-08-21T01:19:13;19.80;82.60
24678;DHT22;12800;53.094;8.778;2023-08-21T01:21:44;19.80;82.60
24678;DHT22;12800;53.094;8.778;2023-08-21T01:24:10;19.80;82.70
24678;DHT22;12800;53.094;8.778;2023-08-21T01:26:35;19.80;82.80
24678;DHT22;12800;53.094;8.778;2023-08-21T01:29:01;19.80;82.70
24678;DHT22;12800;53.094;8.778;2023-08-21T01:31:30;19.80;82.70
24678;DHT22;12800;53.094;8.778;2023-08-21T01:34:02;19.80;82.80
24678;DHT22;12800;53.094;8.778;2023-08-21T01:36:29;19.80;82.80
24678;DHT22;12800;53.094;8.778;2023-08-21T01:38:56;19.80;82.90
24678;DHT22;12800;53.094;8.778;2023-08-21T01:41:24;19.80;82.80
24678;DHT22;12800;53.094;8.778;2023-08-21T01:43:51;19.80;82.80
24678;DHT22;12800;53.094;8.778;2023-08-21T01:46:17;19.80;82.80
24678;DHT22;12800;53.094;8.778;2023-08-21T01:48:42;19.70;82.70
24678;DHT22;12800;53.094;8.778;2023-08-21T01:51:08;19.70;82.70
24678;DHT22;12800;53.094;8.778;2023-08-21T01:53:33;19.70;82.80
24678;DHT22;12800;53.094;8.778;2023-08-21T01:55:59;19.70;82.90
24678;DHT22;12800;53.094;8.778;2023-08-21T01:58:24;19.70;83.00
24678;DHT22;12800;53.094;8.778;2023-08-21T02:00:50;19.70;83.10
24678;DHT22;12800;53.094;8.778;2023-08-21T02:03:16;19.60;83.10
24678;DHT22;12800;53.094;8.778;2023-08-21T02:05:41;19.60;83.10
24678;DHT22;12800;53.094;8.778;2023-08-21T02:08:11;19.60;83.20
24678;DHT22;12800;53.094;8.778;2023-08-21T02:10:37;19.60;83.20
24678;DHT22;12800;53.094;8.778;2023-08-21T02:13:03;19.60;83.30
24678;DHT22;12800;53.094;8.778;2023-08-21T02:15:28;19.60;83.30
24678;DHT22;12800;53.094;8.778;2023-08-21T02:17:54;19.60;83.50
24678;DHT22;12800;53.094;8.778;2023-08-21T02:20:20;19.60;83.50
24678;DHT22;12800;53.094;8.778;2023-08-21T02:22:45;19.50;83.60
24678;DHT22;12800;53.094;8.778;2023-08-21T02:25:11;19.50;83.70
24678;DHT22;12800;53.094;8.778;2023-08-21T02:27:36;19.50;83.70
24678;DHT22;12800;53.094;8.778;2023-08-21T02:30:02;19.50;83.80
24678;DHT22;12800;53.094;8.778;2023-08-21T02:32:28;19.50;83.90
24678;DHT22;12800;53.094;8.778;2023-08-21T02:34:54;19.50;83.90
24678;DHT22;12800;53.094;8.778;2023-08-21T02:37:19;19.50;84.00
24678;DHT22;12800;53.094;8.778;2023-08-21T02:39:45;19.50;83.90
24678;DHT22;12800;53.094;8.778;2023-08-21T02:42:11;19.40;83.80
24678;DHT22;12800;53.094;8.778;2023-08-21T02:44:36;19.40;83.90
24678;DHT22;12800;53.094;8.778;2023-08-21T02:47:02;19.40;83.80
24678;DHT22;12800;53.094;8.778;2023-08-21T02:49:28;19.40;83.80
24678;DHT22;12800;53.094;8.778;2023-08-21T02:51:53;19.40;83.90
24678;DHT22;12800;53.094;8.778;2023-08-21T02:54:19;19.30;84.00
24678;DHT22;12800;53.094;8.778;2023-08-21T02:56:44;19.30;84.10
24678;DHT22;12800;53.094;8.778;2023-08-21T02:59:10;19.30;84.20
24678;DHT22;12800;53.094;8.778;2023-08-21T03:01:36;19.30;84.40
24678;DHT22;12800;53.094;8.778;2023-08-21T03:04:01;19.20;84.40
24678;DHT22;12800;53.094;8.778;2023-08-21T03:06:27;19.20;84.60
24678;DHT22;12800;53.094;8.778;2023-08-21T03:08:52;19.20;84.70
24678;DHT22;12800;53.094;8.778;2023-08-21T03:11:18;19.20;84.80
24678;DHT22;12800;53.094;8.778;2023-08-21T03:13:44;19.20;84.90
24678;DHT22;12800;53.094;8.778;2023-08-21T03:16:09;19.20;84.90
24678;DHT22;12800;53.094;8.778;2023-08-21T03:18:54;19.20;85.00
24678;DHT22;12800;53.094;8.778;2023-08-21T03:21:21;19.20;85.10
24678;DHT22;12800;53.094;8.778;2023-08-21T03:23:51;19.20;85.10
24678;DHT22;12800;53.094;8.778;2023-08-21T03:26:17;19.20;85.00
24678;DHT22;12800;53.094;8.778;2023-08-21T03:28:43;19.10;85.90
24678;DHT22;12800;53.094;8.778;2023-08-21T03:31:08;19.10;85.10
24678;DHT22;12800;53.094;8.778;2023-08-21T03:33:34;19.10;85.00
24678;DHT22;12800;53.094;8.778;2023-08-21T03:35:59;19.00;85.70
24678;DHT22;12800;53.094;8.778;2023-08-21T03:38:25;19.00;85.00
24678;DHT22;12800;53.094;8.778;2023-08-21T03:40:51;19.00;85.10
24678;DHT22;12800;53.094;8.778;2023-08-21T03:43:16;19.00;85.10
24678;DHT22;12800;53.094;8.778;2023-08-21T03:45:42;19.00;85.20
24678;DHT22;12800;53.094;8.778;2023-08-21T03:48:07;18.90;85.10
24678;DHT22;12800;53.094;8.778;2023-08-21T03:50:33;18.90;85.20
24678;DHT22;12800;53.094;8.778;2023-08-21T03:52:59;18.90;85.40
24678;DHT22;12800;53.094;8.778;2023-08-21T03:55:24;18.90;85.30
24678;DHT22;12800;53.094;8.778;2023-08-21T03:57:50;18.80;85.20
24678;DHT22;12800;53.094;8.778;2023-08-21T04:00:15;18.80;86.10
24678;DHT22;12800;53.094;8.778;2023-08-21T04:02:42;18.80;85.30
24678;DHT22;12800;53.094;8.778;2023-08-21T04:05:07;18.80;85.30
24678;DHT22;12800;53.094;8.778;2023-08-21T04:07:33;18.70;86.10
24678;DHT22;12800;53.094;8.778;2023-08-21T04:09:59;18.70;85.30
24678;DHT22;12800;53.094;8.778;2023-08-21T04:12:24;18.70;85.50
24678;DHT22;12800;53.094;8.778;2023-08-21T04:14:50;18.70;85.40
24678;DHT22;12800;53.094;8.778;2023-08-21T04:17:20;18.70;85.40
24678;DHT22;12800;53.094;8.778;2023-08-21T04:19:46;18.70;85.40
24678;DHT22;12800;53.094;8.778;2023-08-21T04:22:12;18.70;85.50
24678;DHT22;12800;53.094;8.778;2023-08-21T04:24:37;18.60;85.50
24678;DHT22;12800;53.094;8.778;2023-08-21T04:27:03;18.60;85.60
24678;DHT22;12800;53.094;8.778;2023-08-21T04:29:29;18.60;85.60
24678;DHT22;12800;53.094;8.778;2023-08-21T04:31:54;18.60;85.70
24678;DHT22;12800;53.094;8.778;2023-08-21T04:34:20;18.60;85.80
24678;DHT22;12800;53.094;8.778;2023-08-21T04:36:45;18.60;85.80
24678;DHT22;12800;53.094;8.778;2023-08-21T04:39:11;18.60;85.80
24678;DHT22;12800;53.094;8.778;2023-08-21T04:41:37;18.60;86.00
24678;DHT22;12800;53.094;8.778;2023-08-21T04:44:04;18.60;86.30
24678;DHT22;12800;53.094;8.778;2023-08-21T04:46:30;18.70;86.40
24678;DHT22;12800;53.094;8.778;2023-08-21T04:48:55;18.70;86.30
24678;DHT22;12800;53.094;8.778;2023-08-21T04:51:21;18.80;86.30
24678;DHT22;12800;53.094;8.778;2023-08-21T04:53:46;18.70;86.20
24678;DHT22;12800;53.094;8.778;2023-08-21T04:56:12;18.70;86.20
24678;DHT22;12800;53.094;8.778;2023-08-21T04:58:38;18.70;86.30
24678;DHT22;12800;53.094;8.778;2023-08-21T05:01:05;18.80;86.40
24678;DHT22;12800;53.094;8.778;2023-08-21T05:03:30;18.80;86.40
24678;DHT22;12800;53.094;8.778;2023-08-21T05:05:56;18.80;86.40
24678;DHT22;12800;53.094;8.778;2023-08-21T05:08:25;18.80;86.50
24678;DHT22;12800;53.094;8.778;2023-08-21T05:10:56;18.80;86.70
24678;DHT22;12800;53.094;8.778;2023-08-21T05:13:21;18.80;86.70
24678;DHT22;12800;53.094;8.778;2023-08-21T05:15:52;18.90;86.90
24678;DHT22;12800;53.094;8.778;2023-08-21T05:18:18;18.90;86.70
24678;DHT22;12800;53.094;8.778;2023-08-21T05:20:43;18.90;86.70
24678;DHT22;12800;53.094;8.778;2023-08-21T05:23:09;19.00;86.80
24678;DHT22;12800;53.094;8.778;2023-08-21T05:25:34;19.00;86.90
24678;DHT22;12800;53.094;8.778;2023-08-21T05:28:00;19.10;86.90
24678;DHT22;12800;53.094;8.778;2023-08-21T05:30:26;19.10;86.80
24678;DHT22;12800;53.094;8.778;2023-08-21T05:32:51;19.10;86.70
24678;DHT22;12800;53.094;8.778;2023-08-21T05:35:17;19.20;86.70
24678;DHT22;12800;53.094;8.778;2023-08-21T05:37:42;19.20;86.50
24678;DHT22;12800;53.094;8.778;2023-08-21T05:40:08;19.20;86.40
24678;DHT22;12800;53.094;8.778;2023-08-21T05:42:34;19.20;86.20
24678;DHT22;12800;53.094;8.778;2023-08-21T05:44:59;19.20;86.10
24678;DHT22;12800;53.094;8.778;2023-08-21T05:47:25;19.20;86.10
24678;DHT22;12800;53.094;8.778;2023-08-21T05:49:52;19.30;86.10
24678;DHT22;12800;53.094;8.778;2023-08-21T05:52:18;19.30;86.10
24678;DHT22;12800;53.094;8.778;2023-08-21T05:54:44;19.30;86.10
24678;DHT22;12800;53.094;8.778;2023-08-21T05:57:10;19.30;85.90
24678;DHT22;12800;53.094;8.778;2023-08-21T05:59:37;19.30;85.90
24678;DHT22;12800;53.094;8.778;2023-08-21T06:02:08;19.30;85.90
24678;DHT22;12800;53.094;8.778;2023-08-21T06:04:33;19.40;86.10
24678;DHT22;12800;53.094;8.778;2023-08-21T06:06:59;19.40;86.00
24678;DHT22;12800;53.094;8.778;2023-08-21T06:09:24;19.40;86.00
24678;DHT22;12800;53.094;8.778;2023-08-21T06:11:50;19.40;86.00
24678;DHT22;12800;53.094;8.778;2023-08-21T06:14:16;19.50;86.10
24678;DHT22;12800;53.094;8.778;2023-08-21T06:16:41;19.50;86.10
24678;DHT22;12800;53.094;8.778;2023-08-21T06:19:09;19.60;86.10
24678;DHT22;12800;53.094;8.778;2023-08-21T06:21:34;19.60;86.10
24678;DHT22;12800;53.094;8.778;2023-08-21T06:24:00;19.60;86.00
24678;DHT22;12800;53.094;8.778;2023-08-21T06:26:25;19.60;86.00
24678;DHT22;12800;53.094;8.778;2023-08-21T06:28:51;19.70;86.00
24678;DHT22;12800;53.094;8.778;2023-08-21T06:31:17;19.70;85.90
24678;DHT22;12800;53.094;8.778;2023-08-21T06:33:43;19.70;85.80
24678;DHT22;12800;53.094;8.778;2023-08-21T06:36:09;19.80;85.80
24678;DHT22;12800;53.094;8.778;2023-08-21T06:38:34;19.80;85.70
24678;DHT22;12800;53.094;8.778;2023-08-21T06:41:00;19.80;85.70
24678;DHT22;12800;53.094;8.778;2023-08-21T06:43:25;19.90;85.50
24678;DHT22;12800;53.094;8.778;2023-08-21T06:45:51;19.90;85.30
24678;DHT22;12800;53.094;8.778;2023-08-21T06:48:17;20.00;85.30
24678;DHT22;12800;53.094;8.778;2023-08-21T06:50:44;20.00;85.10
24678;DHT22;12800;53.094;8.778;2023-08-21T06:53:09;20.00;85.00
24678;DHT22;12800;53.094;8.778;2023-08-21T06:55:35;20.10;84.90
24678;DHT22;12800;53.094;8.778;2023-08-21T06:58:00;20.10;84.80
24678;DHT22;12800;53.094;8.778;2023-08-21T07:00:26;20.10;84.50
24678;DHT22;12800;53.094;8.778;2023-08-21T07:02:52;20.20;84.40
24678;DHT22;12800;53.094;8.778;2023-08-21T07:05:17;20.20;84.30
24678;DHT22;12800;53.094;8.778;2023-08-21T07:07:43;20.30;84.30
24678;DHT22;12800;53.094;8.778;2023-08-21T07:10:08;20.30;84.00
24678;DHT22;12800;53.094;8.778;2023-08-21T07:12:34;20.30;83.80
24678;DHT22;12800;53.094;8.778;2023-08-21T07:15:00;20.40;83.60
24678;DHT22;12800;53.094;8.778;2023-08-21T07:17:25;20.40;83.30
24678;DHT22;12800;53.094;8.778;2023-08-21T07:19:51;20.50;83.10
24678;DHT22;12800;53.094;8.778;2023-08-21T07:22:18;20.50;82.90
24678;DHT22;12800;53.094;8.778;2023-08-21T07:24:45;20.60;82.50
24678;DHT22;12800;53.094;8.778;2023-08-21T07:27:10;20.60;82.20
24678;DHT22;12800;53.094;8.778;2023-08-21T07:29:36;20.60;81.60
24678;DHT22;12800;53.094;8.778;2023-08-21T07:32:01;20.70;81.60
24678;DHT22;12800;53.094;8.778;2023-08-21T07:34:27;20.70;81.50
24678;DHT22;12800;53.094;8.778;2023-08-21T07:36:53;20.80;81.30
24678;DHT22;12800;53.094;8.778;2023-08-21T07:39:18;20.80;80.60
24678;DHT22;12800;53.094;8.778;2023-08-21T07:41:44;20.80;80.00
24678;DHT22;12800;53.094;8.778;2023-08-21T07:44:09;20.90;79.80
24678;DHT22;12800;53.094;8.778;2023-08-21T07:46:35;20.90;79.60
24678;DHT22;12800;53.094;8.778;2023-08-21T07:49:01;21.00;79.30
24678;DHT22;12800;53.094;8.778;2023-08-21T07:51:26;21.00;78.90
24678;DHT22;12800;53.094;8.778;2023-08-21T07:53:52;21.00;78.30
24678;DHT22;12800;53.094;8.778;2023-08-21T07:56:17;21.10;77.90
24678;DHT22;12800;53.094;8.778;2023-08-21T07:58:43;21.10;77.90
24678;DHT22;12800;53.094;8.778;2023-08-21T08:01:09;21.10;77.90
24678;DHT22;12800;53.094;8.778;2023-08-21T08:03:34;21.20;78.10
24678;DHT22;12800;53.094;8.778;2023-08-21T08:06:00;21.20;77.80
24678;DHT22;12800;53.094;8.778;2023-08-21T08:08:26;21.20;77.60
24678;DHT22;12800;53.094;8.778;2023-08-21T08:10:51;21.30;77.70
24678;DHT22;12800;53.094;8.778;2023-08-21T08:13:17;21.30;77.90
24678;DHT22;12800;53.094;8.778;2023-08-21T08:15:42;21.40;77.90
24678;DHT22;12800;53.094;8.778;2023-08-21T08:18:12;21.40;78.50
24678;DHT22;12800;53.094;8.778;2023-08-21T08:20:38;21.40;77.40
24678;DHT22;12800;53.094;8.778;2023-08-21T08:23:04;21.40;77.20
24678;DHT22;12800;53.094;8.778;2023-08-21T08:25:30;21.40;77.00
24678;DHT22;12800;53.094;8.778;2023-08-21T08:27:55;21.50;77.10
24678;DHT22;12800;53.094;8.778;2023-08-21T08:30:21;21.50;77.00
24678;DHT22;12800;53.094;8.778;2023-08-21T08:32:48;21.60;76.80
24678;DHT22;12800;53.094;8.778;2023-08-21T08:35:14;21.60;76.10
24678;DHT22;12800;53.094;8.778;2023-08-21T08:37:41;21.70;75.90
24678;DHT22;12800;53.094;8.778;2023-08-21T08:52:44;21.90;74.00
24678;DHT22;12800;53.094;8.778;2023-08-21T08:55:10;22.00;74.70
24678;DHT22;12800;53.094;8.778;2023-08-21T08:57:36;22.10;73.60
24678;DHT22;12800;53.094;8.778;2023-08-21T09:00:03;22.10;73.40
24678;DHT22;12800;53.094;8.778;2023-08-21T09:02:29;22.20;72.90
24678;DHT22;12800;53.094;8.778;2023-08-21T09:04:55;22.20;72.50
24678;DHT22;12800;53.094;8.778;2023-08-21T09:07:21;22.20;72.40
24678;DHT22;12800;53.094;8.778;2023-08-21T09:09:48;22.30;72.20
24678;DHT22;12800;53.094;8.778;2023-08-21T09:12:18;22.30;71.30
24678;DHT22;12800;53.094;8.778;2023-08-21T09:14:45;22.30;70.90
24678;DHT22;12800;53.094;8.778;2023-08-21T09:17:11;22.30;71.50
24678;DHT22;12800;53.094;8.778;2023-08-21T09:19:37;22.40;70.10
24678;DHT22;12800;53.094;8.778;2023-08-21T09:22:11;22.40;70.00
24678;DHT22;12800;53.094;8.778;2023-08-21T09:24:38;22.40;69.70
24678;DHT22;12800;53.094;8.778;2023-08-21T09:27:04;22.40;68.90
24678;DHT22;12800;53.094;8.778;2023-08-21T09:29:40;22.40;68.20
24678;DHT22;12800;53.094;8.778;2023-08-21T09:32:06;22.50;67.70
24678;DHT22;12800;53.094;8.778;2023-08-21T09:34:36;22.50;69.00
24678;DHT22;12800;53.094;8.778;2023-08-21T09:37:05;22.50;68.10
24678;DHT22;12800;53.094;8.778;2023-08-21T09:39:35;22.60;67.80
24678;DHT22;12800;53.094;8.778;2023-08-21T09:42:07;22.60;67.70
24678;DHT22;12800;53.094;8.778;2023-08-21T09:47:03;22.70;66.80
24678;DHT22;12800;53.094;8.778;2023-08-21T09:49:29;22.70;66.70
24678;DHT22;12800;53.094;8.778;2023-08-21T09:51:57;22.70;66.50
24678;DHT22;12800;53.094;8.778;2023-08-21T09:54:23;22.70;66.50
24678;DHT22;12800;53.094;8.778;2023-08-21T09:56:49;22.80;66.50
24678;DHT22;12800;53.094;8.778;2023-08-21T09:59:16;22.80;66.70
24678;DHT22;12800;53.094;8.778;2023-08-21T10:01:43;22.90;66.70
24678;DHT22;12800;53.094;8.778;2023-08-21T10:04:12;22.90;66.60
24678;DHT22;12800;53.094;8.778;2023-08-21T10:06:38;23.00;66.50
24678;DHT22;12800;53.094;8.778;2023-08-21T10:09:04;23.00;66.20
24678;DHT22;12800;53.094;8.778;2023-08-21T10:11:31;23.10;66.00
24678;DHT22;12800;53.094;8.778;2023-08-21T10:13:56;23.10;66.00
24678;DHT22;12800;53.094;8.778;2023-08-21T10:16:23;23.20;65.60
24678;DHT22;12800;53.094;8.778;2023-08-21T10:18:49;23.20;65.20
24678;DHT22;12800;53.094;8.778;2023-08-21T10:21:20;23.30;65.00
24678;DHT22;12800;53.094;8.778;2023-08-21T10:23:47;23.30;64.60
24678;DHT22;12800;53.094;8.778;2023-08-21T10:26:14;23.40;64.70
24678;DHT22;12800;53.094;8.778;2023-08-21T10:29:01;23.40;64.50
24678;DHT22;12800;53.094;8.778;2023-08-21T10:34:04;23.50;63.40
24678;DHT22;12800;53.094;8.778;2023-08-21T10:36:40;23.60;63.30
24678;DHT22;12800;53.094;8.778;2023-08-21T10:39:26;23.70;62.60
24678;DHT22;12800;53.094;8.778;2023-08-21T10:42:01;23.80;62.00
24678;DHT22;12800;53.094;8.778;2023-08-21T10:44:47;23.90;61.80
24678;DHT22;12800;53.094;8.778;2023-08-21T10:50:20;24.20;61.00
24678;DHT22;12800;53.094;8.778;2023-08-21T10:52:47;24.40;60.50
24678;DHT22;12800;53.094;8.778;2023-08-21T10:55:16;24.60;60.40
24678;DHT22;12800;53.094;8.778;2023-08-21T10:57:45;24.70;59.80
24678;DHT22;12800;53.094;8.778;2023-08-21T11:00:16;24.90;59.30
24678;DHT22;12800;53.094;8.778;2023-08-21T11:02:43;25.00;59.00
24678;DHT22;12800;53.094;8.778;2023-08-21T11:05:10;25.10;59.00
24678;DHT22;12800;53.094;8.778;2023-08-21T11:07:37;25.20;58.60
24678;DHT22;12800;53.094;8.778;2023-08-21T11:10:04;25.30;58.40
24678;DHT22;12800;53.094;8.778;2023-08-21T11:12:30;25.50;58.20
24678;DHT22;12800;53.094;8.778;2023-08-21T11:14:56;25.60;58.00
24678;DHT22;12800;53.094;8.778;2023-08-21T11:17:21;25.60;57.80
24678;DHT22;12800;53.094;8.778;2023-08-21T11:19:48;25.70;57.20
24678;DHT22;12800;53.094;8.778;2023-08-21T11:22:16;25.80;56.90
24678;DHT22;12800;53.094;8.778;2023-08-21T11:24:46;25.80;56.80
24678;DHT22;12800;53.094;8.778;2023-08-21T11:27:14;25.80;56.70
24678;DHT22;12800;53.094;8.778;2023-08-21T11:29:45;25.80;56.60
24678;DHT22;12800;53.094;8.778;2023-08-21T11:34:48;25.70;56.10
24678;DHT22;12800;53.094;8.778;2023-08-21T11:37:14;25.70;56.20
24678;DHT22;12800;53.094;8.778;2023-08-21T11:47:15;25.60;55.40
24678;DHT22;12800;53.094;8.778;2023-08-21T11:49:41;25.50;55.30
24678;DHT22;12800;53.094;8.778;2023-08-21T11:52:08;25.50;55.30
24678;DHT22;12800;53.094;8.778;2023-08-21T11:54:35;25.50;55.40
24678;DHT22;12800;53.094;8.778;2023-08-21T11:57:21;25.60;55.60
24678;DHT22;12800;53.094;8.778;2023-08-21T11:59:54;25.60;55.30
24678;DHT22;12800;53.094;8.778;2023-08-21T12:02:27;25.60;55.00
24678;DHT22;12800;53.094;8.778;2023-08-21T12:05:02;25.60;54.80
24678;DHT22;12800;53.094;8.778;2023-08-21T12:07:29;25.60;54.50
24678;DHT22;12800;53.094;8.778;2023-08-21T12:09:54;25.60;54.60
24678;DHT22;12800;53.094;8.778;2023-08-21T12:12:20;25.60;54.50
24678;DHT22;12800;53.094;8.778;2023-08-21T12:14:46;25.70;54.10
24678;DHT22;12800;53.094;8.778;2023-08-21T12:17:12;25.70;53.90
24678;DHT22;12800;53.094;8.778;2023-08-21T12:19:37;25.70;53.70
24678;DHT22;12800;53.094;8.778;2023-08-21T12:22:03;25.70;53.30
24678;DHT22;12800;53.094;8.778;2023-08-21T12:24:29;25.80;53.10
24678;DHT22;12800;53.094;8.778;2023-08-21T12:26:55;25.90;53.10
24678;DHT22;12800;53.094;8.778;2023-08-21T12:29:21;25.90;52.50
24678;DHT22;12800;53.094;8.778;2023-08-21T12:31:47;26.00;52.50
24678;DHT22;12800;53.094;8.778;2023-08-21T12:34:13;26.00;52.20
24678;DHT22;12800;53.094;8.778;2023-08-21T12:36:39;26.10;52.90
24678;DHT22;12800;53.094;8.778;2023-08-21T12:39:06;26.10;52.10
24678;DHT22;12800;53.094;8.778;2023-08-21T12:41:32;26.10;52.20
24678;DHT22;12800;53.094;8.778;2023-08-21T12:43:59;26.10;52.30
24678;DHT22;12800;53.094;8.778;2023-08-21T12:46:25;26.10;52.20
24678;DHT22;12800;53.094;8.778;2023-08-21T12:48:53;26.20;52.00
24678;DHT22;12800;53.094;8.778;2023-08-21T12:51:19;26.20;51.60
24678;DHT22;12800;53.094;8.778;2023-08-21T12:53:44;26.20;51.60
24678;DHT22;12800;53.094;8.778;2023-08-21T12:56:10;26.30;51.30
24678;DHT22;12800;53.094;8.778;2023-08-21T12:58:36;26.30;50.90
24678;DHT22;12800;53.094;8.778;2023-08-21T13:01:01;26.30;51.00
24678;DHT22;12800;53.094;8.778;2023-08-21T13:03:29;26.40;50.80
24678;DHT22;12800;53.094;8.778;2023-08-21T13:05:54;26.40;50.10
24678;DHT22;12800;53.094;8.778;2023-08-21T13:08:21;26.50;49.70
24678;DHT22;12800;53.094;8.778;2023-08-21T13:10:46;26.60;49.40
24678;DHT22;12800;53.094;8.778;2023-08-21T13:13:12;26.70;49.20
24678;DHT22;12800;53.094;8.778;2023-08-21T13:15:38;26.80;48.90
24678;DHT22;12800;53.094;8.778;2023-08-21T13:18:04;26.90;49.10
24678;DHT22;12800;53.094;8.778;2023-08-21T13:20:30;27.00;49.10
24678;DHT22;12800;53.094;8.778;2023-08-21T13:22:55;27.00;48.80
24678;DHT22;12800;53.094;8.778;2023-08-21T13:25:24;27.10;48.90
24678;DHT22;12800;53.094;8.778;2023-08-21T13:27:51;27.20;49.20
24678;DHT22;12800;53.094;8.778;2023-08-21T13:30:17;27.20;48.20
24678;DHT22;12800;53.094;8.778;2023-08-21T13:32:43;27.30;47.90
24678;DHT22;12800;53.094;8.778;2023-08-21T13:35:09;27.40;48.90
24678;DHT22;12800;53.094;8.778;2023-08-21T13:37:36;27.60;48.30
24678;DHT22;12800;53.094;8.778;2023-08-21T13:40:02;27.70;48.00
24678;DHT22;12800;53.094;8.778;2023-08-21T13:42:40;27.70;47.60
24678;DHT22;12800;53.094;8.778;2023-08-21T13:45:13;27.90;47.30
24678;DHT22;12800;53.094;8.778;2023-08-21T13:47:40;28.10;47.10
24678;DHT22;12800;53.094;8.778;2023-08-21T13:50:07;28.30;47.00
24678;DHT22;12800;53.094;8.778;2023-08-21T13:52:33;28.40;46.80
24678;DHT22;12800;53.094;8.778;2023-08-21T13:55:00;28.50;46.80
24678;DHT22;12800;53.094;8.778;2023-08-21T13:57:26;28.50;46.20
24678;DHT22;12800;53.094;8.778;2023-08-21T13:59:52;28.50;46.00
24678;DHT22;12800;53.094;8.778;2023-08-21T14:02:17;28.50;46.10
24678;DHT22;12800;53.094;8.778;2023-08-21T14:04:45;28.40;46.10
24678;DHT22;12800;53.094;8.778;2023-08-21T14:07:10;28.40;46.40
24678;DHT22;12800;53.094;8.778;2023-08-21T14:09:37;28.30;46.10
24678;DHT22;12800;53.094;8.778;2023-08-21T14:12:03;28.30;46.10
24678;DHT22;12800;53.094;8.778;2023-08-21T14:14:29;28.30;46.40
24678;DHT22;12800;53.094;8.778;2023-08-21T14:16:54;28.40;46.30
24678;DHT22;12800;53.094;8.778;2023-08-21T14:19:20;28.40;46.20
24678;DHT22;12800;53.094;8.778;2023-08-21T14:21:46;28.40;46.30
24678;DHT22;12800;53.094;8.778;2023-08-21T14:24:11;28.30;46.00
24678;DHT22;12800;53.094;8.778;2023-08-21T14:26:37;28.20;46.80
24678;DHT22;12800;53.094;8.778;2023-08-21T14:29:05;28.10;46.30
24678;DHT22;12800;53.094;8.778;2023-08-21T14:31:30;28.10;46.70
24678;DHT22;12800;53.094;8.778;2023-08-21T14:33:56;28.20;46.60
24678;DHT22;12800;53.094;8.778;2023-08-21T14:36:24;28.30;46.50
24678;DHT22;12800;53.094;8.778;2023-08-21T14:38:49;28.40;46.40
24678;DHT22;12800;53.094;8.778;2023-08-21T14:43:46;28.80;45.80
24678;DHT22;12800;53.094;8.778;2023-08-21T14:46:12;28.90;45.70
24678;DHT22;12800;53.094;8.778;2023-08-21T14:48:38;28.90;45.80
24678;DHT22;12800;53.094;8.778;2023-08-21T14:53:37;29.10;45.90
24678;DHT22;12800;53.094;8.778;2023-08-21T14:56:03;29.20;46.10
24678;DHT22;12800;53.094;8.778;2023-08-21T15:00:56;29.50;46.20
24678;DHT22;12800;53.094;8.778;2023-08-21T15:03:22;29.60;46.10
24678;DHT22;12800;53.094;8.778;2023-08-21T15:05:48;29.60;45.70
24678;DHT22;12800;53.094;8.778;2023-08-21T15:08:13;29.60;45.70
24678;DHT22;12800;53.094;8.778;2023-08-21T15:10:39;29.60;45.70
24678;DHT22;12800;53.094;8.778;2023-08-21T15:13:05;29.70;46.30
24678;DHT22;12800;53.094;8.778;2023-08-21T15:15:30;29.80;45.90
24678;DHT22;12800;53.094;8.778;2023-08-21T15:17:56;29.80;45.30
24678;DHT22;12800;53.094;8.778;2023-08-21T15:20:22;29.90;45.00
24678;DHT22;12800;53.094;8.778;2023-08-21T15:22:47;29.90;45.30
24678;DHT22;12800;53.094;8.778;2023-08-21T15:25:15;30.00;45.50
24678;DHT22;12800;53.094;8.778;2023-08-21T15:27:41;30.10;45.30
24678;DHT22;12800;53.094;8.778;2023-08-21T15:30:07;30.40;45.00
24678;DHT22;12800;53.094;8.778;2023-08-21T15:32:33;30.60;44.80
24678;DHT22;12800;53.094;8.778;2023-08-21T15:34:59;30.80;43.80
24678;DHT22;12800;53.094;8.778;2023-08-21T15:37:26;31.00;43.90
24678;DHT22;12800;53.094;8.778;2023-08-21T15:39:52;31.30;43.80
24678;DHT22;12800;53.094;8.778;2023-08-21T15:42:19;31.40;43.40
24678;DHT22;12800;53.094;8.778;2023-08-21T15:44:44;31.30;43.00
24678;DHT22;12800;53.094;8.778;2023-08-21T15:47:10;31.10;42.90
24678;DHT22;12800;53.094;8.778;2023-08-21T15:49:36;30.70;43.20
24678;DHT22;12800;53.094;8.778;2023-08-21T15:52:03;30.30;43.50
24678;DHT22;12800;53.094;8.778;2023-08-21T15:54:31;30.00;44.40
24678;DHT22;12800;53.094;8.778;2023-08-21T15:57:03;29.90;43.80
24678;DHT22;12800;53.094;8.778;2023-08-21T15:59:29;29.60;43.90
24678;DHT22;12800;53.094;8.778;2023-08-21T16:01:55;29.40;44.30
24678;DHT22;12800;53.094;8.778;2023-08-21T16:04:20;29.20;44.50
24678;DHT22;12800;53.094;8.778;2023-08-21T16:06:47;29.00;44.60